createdAt,value
2017-09-08T00:02:04.462Z,96.76
2017-09-08T00:04:31.991Z,96.66
2017-09-08T00:06:59.522Z,96.53
2017-09-08T00:09:27.034Z,96.98
2017-09-08T00:11:54.540Z,96.24
2017-09-08T00:14:22.043Z,96.90
2017-09-08T00:16:49.549Z,96.84
2017-09-08T00:19:17.064Z,96.59
2017-09-08T00:21:45.483Z,96.64
2017-09-08T00:24:12.996Z,97.23
2017-09-08T00:26:40.612Z,97.60
2017-09-08T00:29:08.120Z,97.19
2017-09-08T00:31:35.628Z,97.14
2017-09-08T00:34:03.144Z,96.13
2017-09-08T00:36:30.674Z,96.58
2017-09-08T00:38:58.180Z,96.91
2017-09-08T00:41:25.699Z,97.06
2017-09-08T00:43:53.199Z,96.96
2017-09-08T00:46:20.723Z,97.37
2017-09-08T00:48:48.232Z,97.00
2017-09-08T00:51:15.762Z,97.00
2017-09-08T00:53:43.272Z,97.63
2017-09-08T00:56:10.787Z,97.46
2017-09-08T00:58:38.328Z,97.49
2017-09-08T01:01:05.835Z,97.35
2017-09-08T01:03:33.347Z,96.74
2017-09-08T01:06:00.896Z,96.82
2017-09-08T01:08:28.421Z,97.09
2017-09-08T01:10:55.919Z,96.95
2017-09-08T01:13:23.451Z,97.28
2017-09-08T01:15:50.954Z,97.91
2017-09-08T01:18:18.456Z,97.71
2017-09-08T01:20:45.966Z,98.08
2017-09-08T01:23:13.485Z,97.92
2017-09-08T01:25:41.013Z,97.94
2017-09-08T01:28:08.536Z,97.90
2017-09-08T01:30:36.040Z,98.12
2017-09-08T01:33:03.538Z,97.62
2017-09-08T01:35:31.045Z,96.79
2017-09-08T01:37:58.563Z,97.10
2017-09-08T01:40:26.059Z,97.15
2017-09-08T01:42:53.562Z,96.83
2017-09-08T01:45:22.072Z,96.98
2017-09-08T01:47:49.600Z,97.52
2017-09-08T01:50:17.153Z,98.46
2017-09-08T01:52:44.672Z,99.32
2017-09-08T01:55:12.192Z,99.55
2017-09-08T01:57:39.700Z,99.15
2017-09-08T02:00:07.252Z,98.39
2017-09-08T02:02:34.773Z,97.92
2017-09-08T02:05:02.281Z,97.65
2017-09-08T02:07:29.800Z,96.86
2017-09-08T02:09:57.319Z,98.17
2017-09-08T02:12:25.202Z,98.50
2017-09-08T02:14:52.719Z,98.38
2017-09-08T02:17:20.220Z,96.50
2017-09-08T02:19:47.723Z,94.54
2017-09-08T02:22:15.232Z,95.02
2017-09-08T02:24:42.748Z,95.92
2017-09-08T02:27:10.251Z,96.73
2017-09-08T02:29:37.760Z,97.26
2017-09-08T02:32:05.272Z,97.47
2017-09-08T02:34:32.771Z,97.53
2017-09-08T02:37:00.277Z,96.96
2017-09-08T02:39:27.789Z,97.47
2017-09-08T02:41:55.317Z,97.56
2017-09-08T02:44:23.002Z,97.65
2017-09-08T02:46:50.536Z,98.08
2017-09-08T02:49:18.042Z,97.75
2017-09-08T02:51:45.556Z,97.61
2017-09-08T02:54:13.054Z,98.10
2017-09-08T02:56:40.556Z,98.06
2017-09-08T02:59:08.066Z,98.18
2017-09-08T03:01:35.567Z,98.33
2017-09-08T03:04:03.103Z,97.76
2017-09-08T03:06:30.624Z,97.26
2017-09-08T03:08:58.138Z,97.32
2017-09-08T03:11:25.655Z,97.27
2017-09-08T03:13:53.155Z,97.36
2017-09-08T03:16:20.661Z,97.75
2017-09-08T03:18:48.166Z,98.12
2017-09-08T03:21:15.677Z,97.65
2017-09-08T03:23:43.186Z,97.32
2017-09-08T03:26:10.695Z,96.91
2017-09-08T03:28:38.199Z,97.92
2017-09-08T03:31:05.706Z,97.95
2017-09-08T03:33:33.214Z,97.82
2017-09-08T03:36:00.724Z,98.17
2017-09-08T03:38:28.247Z,98.02
2017-09-08T03:40:55.742Z,98.12
2017-09-08T03:43:23.261Z,98.14
2017-09-08T03:45:50.756Z,97.48
2017-09-08T03:48:18.279Z,97.86
2017-09-08T03:50:45.796Z,97.41
2017-09-08T03:53:13.317Z,97.00
2017-09-08T03:55:40.828Z,96.96
2017-09-08T03:58:08.359Z,97.06
2017-09-08T04:00:35.862Z,97.08
2017-09-08T04:03:03.376Z,97.17
2017-09-08T04:05:30.895Z,97.24
2017-09-08T04:07:58.427Z,98.26
2017-09-08T04:10:25.939Z,98.17
2017-09-08T04:12:53.449Z,97.88
2017-09-08T04:15:20.994Z,97.80
2017-09-08T04:17:48.545Z,97.52
2017-09-08T04:20:16.054Z,97.98
2017-09-08T04:22:43.558Z,98.32
2017-09-08T04:25:12.076Z,97.57
2017-09-08T04:27:39.583Z,96.98
2017-09-08T04:30:07.091Z,98.12
2017-09-08T04:32:34.616Z,98.21
2017-09-08T04:35:02.123Z,98.11
2017-09-08T04:37:29.623Z,99.10
2017-09-08T04:39:57.131Z,98.59
2017-09-08T04:42:24.651Z,98.29
2017-09-08T04:44:52.159Z,97.99
2017-09-08T04:47:19.665Z,97.77
2017-09-08T04:49:47.175Z,97.91
2017-09-08T04:52:14.680Z,98.25
2017-09-08T04:54:42.200Z,97.43
2017-09-08T04:57:09.702Z,97.61
2017-09-08T04:59:38.051Z,97.68
2017-09-08T05:02:05.573Z,96.66
2017-09-08T05:04:33.089Z,95.18
2017-09-08T05:07:00.595Z,94.55
2017-09-08T05:09:28.123Z,94.74
2017-09-08T05:11:55.646Z,94.53
2017-09-08T05:14:23.156Z,94.60
2017-09-08T05:16:50.672Z,94.98
2017-09-08T05:19:18.193Z,96.12
2017-09-08T05:21:45.716Z,94.97
2017-09-08T05:24:13.247Z,95.15
2017-09-08T05:26:41.206Z,94.77
2017-09-08T05:29:08.711Z,93.13
2017-09-08T05:31:36.206Z,94.02
2017-09-08T05:34:03.704Z,94.40
2017-09-08T05:36:31.220Z,94.64
2017-09-08T05:38:58.735Z,94.22
2017-09-08T05:41:26.252Z,93.89
2017-09-08T05:43:53.755Z,94.25
2017-09-08T05:46:21.276Z,92.36
2017-09-08T05:48:48.808Z,92.43
2017-09-08T05:51:16.346Z,91.27
2017-09-08T05:53:43.860Z,90.06
2017-09-08T05:56:11.371Z,88.97
2017-09-08T05:58:38.900Z,86.44
2017-09-08T06:01:06.462Z,86.84
2017-09-08T06:03:33.978Z,88.87
2017-09-08T06:06:01.493Z,88.86
2017-09-08T06:08:29.024Z,89.09
2017-09-08T06:10:56.523Z,90.26
2017-09-08T06:13:24.150Z,90.59
2017-09-08T06:15:51.694Z,90.84
2017-09-08T06:18:19.210Z,88.91
2017-09-08T06:20:46.747Z,88.61
2017-09-08T06:23:14.269Z,88.98
2017-09-08T06:25:41.785Z,88.27
2017-09-08T06:28:09.311Z,88.11
2017-09-08T06:30:36.829Z,89.15
2017-09-08T06:33:04.350Z,88.63
2017-09-08T06:35:31.869Z,87.15
2017-09-08T06:37:59.379Z,86.96
2017-09-08T06:40:26.899Z,88.48
2017-09-08T06:42:54.431Z,87.71
2017-09-08T06:45:21.945Z,86.42
2017-09-08T06:47:49.455Z,85.43
2017-09-08T06:50:16.963Z,85.12
2017-09-08T06:52:44.468Z,84.67
2017-09-08T06:55:12.007Z,84.89
2017-09-08T06:57:39.525Z,79.39
2017-09-08T07:00:07.058Z,75.71
2017-09-08T07:02:34.580Z,74.05
2017-09-08T07:05:02.078Z,74.12
2017-09-08T07:07:29.582Z,68.44
2017-09-08T07:09:57.098Z,62.54
2017-09-08T07:12:24.623Z,63.17
2017-09-08T07:14:52.126Z,61.52
2017-09-08T07:17:19.758Z,56.98
2017-09-08T07:19:47.300Z,60.74
2017-09-08T07:22:14.826Z,63.53
2017-09-08T07:24:42.335Z,61.75
2017-09-08T07:27:09.862Z,63.53
2017-09-08T07:29:37.375Z,66.82
2017-09-08T07:32:04.889Z,65.76
2017-09-08T07:34:32.524Z,67.02
2017-09-08T07:37:00.050Z,69.79
2017-09-08T07:39:27.562Z,69.10
2017-09-08T07:41:55.063Z,70.09
2017-09-08T07:44:22.564Z,69.16
2017-09-08T07:46:50.080Z,71.62
2017-09-08T07:49:17.583Z,69.08
2017-09-08T07:51:45.421Z,69.23
2017-09-08T07:54:12.940Z,67.53
2017-09-08T07:56:40.587Z,67.98
2017-09-08T07:59:08.094Z,65.66
2017-09-08T08:01:35.803Z,66.69
2017-09-08T08:04:03.317Z,63.00
2017-09-08T08:06:30.827Z,63.45
2017-09-08T08:08:58.326Z,64.90
2017-09-08T08:11:25.842Z,63.32
2017-09-08T08:13:53.370Z,64.00
2017-09-08T08:16:20.889Z,63.98
2017-09-08T08:18:48.403Z,61.35
2017-09-08T08:21:15.921Z,63.23
2017-09-08T08:23:43.434Z,62.20
2017-09-08T08:26:10.961Z,63.24
2017-09-08T08:28:38.467Z,64.23
2017-09-08T08:31:05.988Z,65.20
2017-09-08T08:33:33.539Z,63.68
2017-09-08T08:36:01.061Z,62.68
2017-09-08T08:38:28.587Z,64.46
2017-09-08T08:40:57.161Z,62.82
2017-09-08T08:43:24.662Z,60.39
2017-09-08T08:45:52.184Z,57.26
2017-09-08T08:48:19.705Z,61.29
2017-09-08T08:50:47.235Z,61.49
2017-09-08T08:53:14.747Z,59.74
2017-09-08T08:55:42.280Z,60.84
2017-09-08T08:58:10.036Z,59.06
2017-09-08T09:00:37.555Z,54.46
2017-09-08T09:03:05.075Z,53.82
2017-09-08T09:05:32.617Z,51.74
2017-09-08T09:08:00.421Z,49.91
2017-09-08T09:10:27.925Z,48.37
2017-09-08T09:12:55.433Z,44.51
2017-09-08T09:15:23.094Z,39.75
2017-09-08T09:17:50.759Z,37.55
2017-09-08T09:20:18.288Z,35.96
2017-09-08T09:22:45.792Z,37.42
2017-09-08T09:25:13.300Z,35.38
2017-09-08T09:27:40.852Z,33.10
2017-09-08T09:30:08.372Z,33.51
2017-09-08T09:32:35.876Z,31.21
2017-09-08T09:35:03.554Z,27.19
2017-09-08T09:37:31.084Z,31.04
2017-09-08T09:39:58.610Z,35.43
2017-09-08T09:42:26.129Z,39.47
2017-09-08T09:44:54.049Z,40.26
2017-09-08T09:47:21.590Z,42.06
2017-09-08T09:49:49.134Z,45.13
2017-09-08T09:52:16.685Z,46.74
2017-09-08T09:54:44.316Z,43.06
2017-09-08T09:57:11.857Z,41.25
2017-09-08T09:59:39.387Z,39.73
2017-09-08T10:02:06.897Z,39.83
2017-09-08T10:04:34.476Z,39.25
2017-09-08T10:07:02.009Z,41.20
2017-09-08T10:09:29.517Z,43.19
2017-09-08T10:11:57.044Z,44.18
2017-09-08T10:14:24.569Z,45.15
2017-09-08T10:16:52.076Z,45.58
2017-09-08T10:19:19.580Z,46.05
2017-09-08T10:21:47.191Z,46.44
2017-09-08T10:24:14.790Z,45.79
2017-09-08T10:26:42.307Z,45.22
2017-09-08T10:29:10.064Z,41.10
2017-09-08T10:31:37.726Z,40.49
2017-09-08T10:34:05.269Z,40.94
2017-09-08T10:36:32.781Z,43.67
2017-09-08T10:39:00.282Z,46.19
2017-09-08T10:41:27.811Z,41.58
2017-09-08T10:43:55.332Z,38.49
2017-09-08T10:46:22.951Z,40.50
2017-09-08T10:48:50.469Z,40.34
2017-09-08T10:51:18.171Z,44.09
2017-09-08T10:53:45.710Z,44.88
2017-09-08T10:56:13.368Z,46.14
2017-09-08T10:58:40.896Z,41.76
2017-09-08T11:01:08.428Z,43.03
2017-09-08T11:03:35.935Z,43.98
2017-09-08T11:06:03.470Z,41.68
2017-09-08T11:08:30.986Z,43.08
2017-09-08T11:10:58.496Z,41.67
2017-09-08T11:13:26.023Z,40.88
2017-09-08T11:15:53.649Z,39.53
2017-09-08T11:18:21.240Z,41.76
2017-09-08T11:20:48.775Z,42.35
2017-09-08T11:23:16.307Z,40.49
2017-09-08T11:25:43.827Z,41.95
2017-09-08T11:28:11.333Z,43.91
2017-09-08T11:30:38.858Z,43.81
2017-09-08T11:36:19.511Z,41.92
2017-09-08T11:38:47.168Z,37.20
2017-09-08T11:41:14.676Z,40.46
2017-09-08T11:43:42.197Z,42.94
2017-09-08T11:46:09.706Z,40.34
2017-09-08T11:48:37.238Z,41.40
2017-09-08T11:51:04.763Z,43.85
2017-09-08T11:53:32.300Z,41.21
2017-09-08T11:55:59.819Z,43.33
2017-09-08T11:58:27.363Z,41.30
2017-09-08T12:00:54.891Z,42.25
2017-09-08T12:03:22.398Z,42.96
2017-09-08T12:05:49.949Z,44.82
2017-09-08T12:08:17.464Z,42.82
2017-09-08T12:10:45.085Z,44.07
2017-09-08T12:13:12.594Z,44.97
2017-09-08T12:15:40.148Z,46.89
2017-09-08T12:18:07.664Z,46.37
2017-09-08T12:20:35.195Z,45.64
2017-09-08T12:23:02.713Z,44.54
2017-09-08T12:25:30.479Z,39.52
2017-09-08T12:27:58.234Z,39.02
2017-09-08T12:30:25.748Z,38.75
2017-09-08T12:32:53.261Z,39.94
2017-09-08T12:35:20.784Z,38.96
2017-09-08T12:37:48.313Z,35.68
2017-09-08T12:40:15.828Z,36.78
2017-09-08T12:42:43.345Z,34.00
2017-09-08T12:45:10.863Z,34.23
2017-09-08T12:47:38.383Z,36.33
2017-09-08T12:50:05.905Z,37.77
2017-09-08T12:52:33.412Z,41.70
2017-09-08T12:55:00.952Z,41.08
2017-09-08T12:57:28.479Z,40.58
2017-09-08T12:59:55.984Z,41.96
2017-09-08T13:02:23.524Z,40.85
2017-09-08T13:04:51.064Z,42.42
2017-09-08T13:07:18.579Z,43.00
2017-09-08T13:09:46.086Z,42.35
2017-09-08T13:12:20.687Z,43.30
2017-09-08T13:14:48.200Z,43.98
2017-09-08T13:17:15.711Z,41.55
2017-09-08T13:19:43.235Z,41.65
2017-09-08T13:22:10.847Z,39.43
2017-09-08T13:24:38.383Z,40.96
2017-09-08T13:27:05.910Z,42.16
2017-09-08T13:29:33.419Z,44.08
2017-09-08T13:32:00.930Z,44.42
2017-09-08T13:34:28.443Z,41.36
2017-09-08T13:36:55.962Z,41.78
2017-09-08T13:39:23.500Z,42.22
2017-09-08T13:41:51.053Z,41.46
2017-09-08T13:44:18.589Z,38.25
2017-09-08T13:46:46.100Z,38.35
2017-09-08T13:49:13.651Z,37.96
2017-09-08T13:51:41.162Z,37.64
2017-09-08T13:54:08.828Z,39.16
2017-09-08T13:56:36.344Z,40.14
2017-09-08T13:59:03.875Z,35.86
2017-09-08T14:01:31.450Z,38.08
2017-09-08T14:03:58.986Z,33.75
2017-09-08T14:06:26.709Z,37.10
2017-09-08T14:08:54.220Z,36.42
2017-09-08T14:11:21.757Z,36.43
2017-09-08T14:13:49.283Z,40.41
2017-09-08T14:16:16.787Z,38.32
2017-09-08T14:18:44.413Z,39.74
2017-09-08T14:21:12.200Z,41.31
2017-09-08T14:23:39.740Z,42.33
2017-09-08T14:26:07.296Z,43.44
2017-09-08T14:28:34.853Z,47.24
2017-09-08T14:31:02.540Z,44.56
2017-09-08T14:33:30.063Z,45.81
2017-09-08T14:35:57.660Z,44.98
2017-09-08T14:38:25.179Z,45.71
2017-09-08T14:40:52.709Z,47.48
2017-09-08T14:43:20.233Z,45.71
2017-09-08T14:45:47.758Z,46.96
2017-09-08T14:48:15.272Z,44.89
2017-09-08T14:50:42.792Z,44.82
2017-09-08T14:53:10.320Z,48.42
2017-09-08T14:55:37.840Z,45.82
2017-09-08T14:58:05.346Z,47.91
2017-09-08T15:00:32.861Z,48.49
2017-09-08T15:03:00.362Z,47.77
2017-09-08T15:05:27.884Z,49.80
2017-09-08T15:07:55.424Z,49.02
2017-09-08T15:10:22.938Z,47.81
2017-09-08T15:12:50.458Z,48.23
2017-09-08T15:15:17.990Z,48.00
2017-09-08T15:17:45.508Z,48.20
2017-09-08T15:20:13.038Z,50.52
2017-09-08T15:22:40.578Z,49.01
2017-09-08T15:25:08.147Z,49.46
2017-09-08T15:27:35.661Z,51.82
2017-09-08T15:30:03.180Z,50.52
2017-09-08T15:32:30.683Z,51.03
2017-09-08T15:34:58.227Z,53.68
2017-09-08T15:37:26.385Z,51.93
2017-09-08T15:39:54.007Z,52.76
2017-09-08T15:42:21.583Z,53.34
2017-09-08T15:44:49.203Z,54.11
2017-09-08T15:47:16.731Z,53.10
2017-09-08T15:49:44.248Z,52.23
2017-09-08T15:52:11.769Z,51.95
2017-09-08T15:54:39.381Z,53.26
2017-09-08T15:57:06.889Z,51.84
2017-09-08T15:59:34.419Z,53.38
2017-09-08T16:02:01.982Z,53.00
2017-09-08T16:04:29.505Z,52.68
2017-09-08T16:06:57.022Z,52.92
2017-09-08T16:09:24.587Z,54.03
2017-09-08T16:11:52.143Z,53.74
2017-09-08T16:14:19.653Z,54.07
2017-09-08T16:16:47.181Z,54.65
2017-09-08T16:19:14.708Z,55.16
2017-09-08T16:21:42.287Z,57.27
2017-09-08T16:24:09.834Z,56.63
2017-09-08T16:26:37.363Z,58.19
2017-09-08T16:29:04.887Z,57.70
2017-09-08T16:31:32.427Z,57.27
2017-09-08T16:33:59.967Z,56.74
2017-09-08T16:36:27.497Z,56.68
2017-09-08T16:38:55.038Z,57.54
2017-09-08T16:41:22.541Z,57.43
2017-09-08T16:43:50.040Z,58.78
2017-09-08T16:46:17.548Z,60.74
2017-09-08T16:48:45.069Z,58.34
2017-09-08T16:51:12.580Z,58.26
2017-09-08T16:53:40.103Z,57.78
2017-09-08T16:56:07.652Z,58.58
2017-09-08T16:58:35.182Z,59.24
2017-09-08T17:01:02.708Z,60.08
2017-09-08T17:03:30.243Z,61.29
2017-09-08T17:05:57.787Z,60.50
2017-09-08T17:08:25.313Z,60.71
2017-09-08T17:10:52.942Z,60.07
2017-09-08T17:13:20.548Z,60.26
2017-09-08T17:15:48.067Z,64.41
2017-09-08T17:18:15.566Z,67.61
2017-09-08T17:20:43.267Z,68.69
2017-09-08T17:23:10.779Z,69.50
2017-09-08T17:25:38.317Z,71.86
2017-09-08T17:28:05.823Z,73.01
2017-09-08T17:30:33.329Z,72.79
2017-09-08T17:33:00.834Z,74.45
2017-09-08T17:35:28.375Z,74.16
2017-09-08T17:37:56.043Z,76.22
2017-09-08T17:40:23.564Z,75.83
2017-09-08T17:42:51.107Z,75.23
2017-09-08T17:45:18.620Z,78.59
2017-09-08T17:47:46.282Z,78.75
2017-09-08T17:50:13.799Z,79.35
2017-09-08T17:52:41.344Z,81.58
2017-09-08T17:55:08.867Z,80.91
2017-09-08T17:57:36.375Z,81.26
2017-09-08T18:00:04.192Z,80.39
2017-09-08T18:02:31.997Z,80.01
2017-09-08T18:04:59.586Z,80.88
2017-09-08T18:07:27.109Z,81.90
2017-09-08T18:09:54.633Z,82.56
2017-09-08T18:12:22.149Z,82.67
2017-09-08T18:14:49.786Z,81.52
2017-09-08T18:17:17.344Z,80.78
2017-09-08T18:19:44.843Z,83.50
2017-09-08T18:22:12.765Z,83.46
2017-09-08T18:24:40.377Z,83.56
2017-09-08T18:27:07.895Z,83.99
2017-09-08T18:29:35.420Z,85.04
2017-09-08T18:32:02.943Z,84.86
2017-09-08T18:34:30.467Z,84.76
2017-09-08T18:36:57.978Z,85.41
2017-09-08T18:39:25.531Z,84.80
2017-09-08T18:41:53.099Z,84.63
2017-09-08T18:44:20.630Z,84.66
2017-09-08T18:46:48.181Z,85.18
2017-09-08T18:49:15.729Z,84.24
2017-09-08T18:51:43.232Z,83.31
2017-09-08T18:54:10.761Z,82.11
2017-09-08T18:56:38.289Z,82.47
2017-09-08T18:59:05.888Z,82.97
2017-09-08T19:01:33.400Z,83.94
2017-09-08T19:04:00.927Z,83.51
2017-09-08T19:06:28.435Z,83.36
2017-09-08T19:08:55.940Z,82.73
2017-09-08T19:11:23.452Z,84.21
2017-09-08T19:13:50.969Z,81.16
2017-09-08T19:16:18.482Z,79.23
2017-09-08T19:18:46.003Z,79.95
2017-09-08T19:21:13.559Z,78.19
2017-09-08T19:23:41.103Z,78.13
2017-09-08T19:26:08.618Z,80.23
2017-09-08T19:28:36.159Z,80.65
2017-09-08T19:31:03.704Z,82.32
2017-09-08T19:33:31.276Z,83.93
2017-09-08T19:35:58.808Z,83.21
2017-09-08T19:38:26.314Z,80.89
2017-09-08T19:40:53.844Z,81.11
2017-09-08T19:43:21.367Z,80.48
2017-09-08T19:45:48.896Z,82.45
2017-09-08T19:48:16.448Z,82.39
2017-09-08T19:50:44.060Z,82.45
2017-09-08T19:53:11.618Z,83.50
2017-09-08T19:55:39.139Z,84.71
2017-09-08T19:58:06.661Z,85.92
2017-09-08T20:00:34.183Z,85.10
2017-09-08T20:03:01.699Z,85.32
2017-09-08T20:05:29.208Z,86.56
2017-09-08T20:07:56.893Z,86.80
2017-09-08T20:10:24.403Z,87.37
2017-09-08T20:12:51.928Z,87.56
2017-09-08T20:15:19.470Z,87.22
2017-09-08T20:17:47.008Z,87.92
2017-09-08T20:20:14.545Z,88.26
2017-09-08T20:22:42.058Z,89.08
2017-09-08T20:25:09.647Z,89.67
2017-09-08T20:27:37.202Z,88.92
2017-09-08T20:30:04.726Z,89.25
2017-09-08T20:32:32.266Z,89.85
2017-09-08T20:34:59.812Z,90.30
2017-09-08T20:37:27.509Z,90.58
2017-09-08T20:39:55.037Z,90.42
2017-09-08T20:42:22.572Z,90.43
2017-09-08T20:44:50.076Z,90.44
2017-09-08T20:47:17.592Z,90.51
2017-09-08T20:49:45.136Z,90.65
2017-09-08T20:52:12.666Z,90.71
2017-09-08T20:54:40.207Z,90.24
2017-09-08T20:57:07.754Z,91.50
2017-09-08T20:59:35.256Z,91.62
2017-09-08T21:02:02.790Z,91.51
2017-09-08T21:04:30.302Z,91.44
2017-09-08T21:06:57.821Z,91.61
2017-09-08T21:09:25.374Z,91.18
2017-09-08T21:11:52.915Z,91.60
2017-09-08T21:14:20.550Z,92.20
2017-09-08T21:16:48.054Z,92.33
2017-09-08T21:19:15.582Z,92.51
2017-09-08T21:21:43.114Z,92.35
2017-09-08T21:24:10.644Z,92.63
2017-09-08T21:26:38.153Z,92.22
2017-09-08T21:29:05.666Z,93.11
2017-09-08T21:31:33.180Z,93.62
2017-09-08T21:34:00.687Z,92.91
2017-09-08T21:36:28.207Z,93.95
2017-09-08T21:38:55.743Z,94.08
2017-09-08T21:41:23.254Z,94.54
2017-09-08T21:43:50.850Z,93.46
2017-09-08T21:46:18.366Z,93.70
2017-09-08T21:48:45.882Z,93.76
2017-09-08T21:51:13.388Z,93.91
2017-09-08T21:53:40.898Z,92.98
2017-09-08T21:56:08.417Z,93.29
2017-09-08T21:58:35.954Z,93.37
2017-09-08T22:01:03.484Z,93.13
2017-09-08T22:03:30.996Z,92.99
2017-09-08T22:05:58.505Z,93.63
2017-09-08T22:08:26.023Z,93.21
2017-09-08T22:10:53.535Z,93.86
2017-09-08T22:13:21.058Z,93.81
2017-09-08T22:15:48.564Z,93.54
2017-09-08T22:18:16.084Z,93.19
2017-09-08T22:20:43.598Z,93.15
2017-09-08T22:23:11.407Z,93.81
2017-09-08T22:25:38.922Z,93.08
2017-09-08T22:28:06.440Z,93.24
2017-09-08T22:30:33.956Z,92.56
2017-09-08T22:33:01.467Z,92.04
2017-09-08T22:35:28.999Z,92.78
2017-09-08T22:37:56.503Z,93.82
2017-09-08T22:40:24.008Z,92.99
2017-09-08T22:42:51.541Z,94.40
2017-09-08T22:45:19.146Z,94.55
2017-09-08T22:47:46.689Z,93.98
2017-09-08T22:50:14.195Z,93.98
2017-09-08T22:52:41.731Z,94.70
2017-09-08T22:55:09.246Z,95.03
2017-09-08T22:57:36.790Z,95.39
2017-09-08T23:00:04.303Z,95.05
2017-09-08T23:02:31.824Z,94.53
2017-09-08T23:04:59.357Z,93.72
2017-09-08T23:07:26.891Z,92.98
2017-09-08T23:09:58.941Z,94.55
2017-09-08T23:12:26.440Z,94.57
2017-09-08T23:14:53.981Z,94.35
2017-09-08T23:17:21.499Z,94.13
2017-09-08T23:19:48.999Z,94.83
2017-09-08T23:22:16.529Z,95.09
2017-09-08T23:24:44.048Z,95.61
2017-09-08T23:27:11.566Z,95.21
2017-09-08T23:29:39.088Z,95.22
2017-09-08T23:32:06.603Z,94.84
2017-09-08T23:34:34.108Z,92.63
2017-09-08T23:37:01.626Z,93.30
2017-09-08T23:39:29.134Z,94.42
2017-09-08T23:41:56.646Z,94.32
2017-09-08T23:44:24.170Z,93.24
2017-09-08T23:46:51.673Z,92.80
2017-09-08T23:49:19.222Z,95.12
2017-09-08T23:51:46.739Z,95.33
2017-09-08T23:54:14.250Z,95.79
2017-09-08T23:56:41.763Z,95.86
2017-09-08T23:59:09.272Z,95.41
